Back to Top

Language: 

My Weather Underground Personal Weather Station Historical Data with Graphs...

Delerius Weather Station Historical Data
Daily Summary for January 7, 2017 Units:  Both    English   Metric
« Previous Day
Next Day »
Daily Weekly Monthly Yearly Custom
  High: Low: Average:
Temperature: 51.9 °F /  11.1 °C 41.6 °F /  5.3 °C 47.2 °F /  8.4 °C
Dew Point: 49.4 °F /  9.7 °C 40.3 °F /  4.6 °C 45.7 °F /  7.6 °C
Humidity: 98 % 88 % 94 %
Wind Speed: 9.0 mph /  14.5 km/h - 3.2 mph /  5.1 km/h
Wind Gust: 12.0 mph /  19.3 km/h - -
Wind:- - WNW
Pressure: 30.46 in /  1031.4 hPa 30.39 in /  1029 hPa -
Precipitation: 0.00 in /  0 mm    
Historical Graphs
 
 
Tabular Data for January 7, 2017
Time Temperature Dew Point Pressure Wind Wind Speed Wind Gust Humidity Rainfall Rate (Hourly) solar Conditions
00:00 44.3 °F /  6.8 °C 43.5 °F /  6.4 °C 30.40 in /  1029.3 hPa Calm   8.0 mph /  12.9 km/h 97 % 0.00 in /  0 mm 0 W/m2
00:15 44.6 °F /  7 °C 43.8 °F /  6.6 °C 30.40 in /  1029.3 hPa Calm     97 % 0.00 in /  0 mm 0 W/m2
00:20 44.7 °F /  7.1 °C 43.9 °F /  6.6 °C 30.39 in /  1029 hPa Calm     97 % 0.00 in /  0 mm 0 W/m2
00:25 44.8 °F /  7.1 °C 44.0 °F /  6.7 °C 30.39 in /  1029 hPa Calm   1.0 mph /  1.6 km/h 97 % 0.00 in /  0 mm 0 W/m2
00:30 44.9 °F /  7.2 °C 44.1 °F /  6.7 °C 30.39 in /  1029 hPa ENE 1.0 mph /  1.6 km/h 2.0 mph /  3.2 km/h 97 % 0.00 in /  0 mm 0 W/m2
00:35 44.9 °F /  7.2 °C 44.1 °F /  6.7 °C 30.39 in /  1029 hPa ENE 1.0 mph /  1.6 km/h 2.0 mph /  3.2 km/h 97 % 0.00 in /  0 mm 0 W/m2
00:45 44.8 °F /  7.1 °C 44.0 °F /  6.7 °C 30.39 in /  1029 hPa Calm     97 % 0.00 in /  0 mm 0 W/m2
00:50 44.7 °F /  7.1 °C 43.6 °F /  6.4 °C 30.39 in /  1029 hPa WSW 1.0 mph /  1.6 km/h 2.0 mph /  3.2 km/h 96 % 0.00 in /  0 mm 0 W/m2
00:55 44.8 °F /  7.1 °C 44.0 °F /  6.7 °C 30.39 in /  1029 hPa WSW 2.0 mph /  3.2 km/h 4.0 mph /  6.4 km/h 97 % 0.00 in /  0 mm 0 W/m2
01:00 44.8 °F /  7.1 °C 44.0 °F /  6.7 °C 30.39 in /  1029 hPa WSW 2.0 mph /  3.2 km/h 3.0 mph /  4.8 km/h 97 % 0.00 in /  0 mm 0 W/m2
01:05 44.8 °F /  7.1 °C 44.0 °F /  6.7 °C 30.39 in /  1029 hPa WSW 2.0 mph /  3.2 km/h 3.0 mph /  4.8 km/h 97 % 0.00 in /  0 mm 0 W/m2
01:10 44.9 °F /  7.2 °C 44.1 °F /  6.7 °C 30.40 in /  1029.3 hPa WSW 1.0 mph /  1.6 km/h 1.0 mph /  1.6 km/h 97 % 0.00 in /  0 mm 0 W/m2
01:15 44.8 °F /  7.1 °C 44.0 °F /  6.7 °C 30.40 in /  1029.3 hPa Calm   1.0 mph /  1.6 km/h 97 % 0.00 in /  0 mm 0 W/m2
01:25 44.6 °F /  7 °C 43.8 °F /  6.6 °C 30.40 in /  1029.3 hPa Calm   1.0 mph /  1.6 km/h 97 % 0.00 in /  0 mm 0 W/m2
01:30 44.4 °F /  6.9 °C 43.3 °F /  6.3 °C 30.40 in /  1029.3 hPa Calm   1.0 mph /  1.6 km/h 96 % 0.00 in /  0 mm 0 W/m2
01:40 44.7 °F /  7.1 °C 43.9 °F /  6.6 °C 30.40 in /  1029.3 hPa WSW 3.0 mph /  4.8 km/h 4.0 mph /  6.4 km/h 97 % 0.00 in /  0 mm 0 W/m2
01:45 45.0 °F /  7.2 °C 44.2 °F /  6.8 °C 30.40 in /  1029.3 hPa WSW 4.0 mph /  6.4 km/h 5.0 mph /  8 km/h 97 % 0.00 in /  0 mm 0 W/m2
01:50 45.2 °F /  7.3 °C 44.4 °F /  6.9 °C 30.40 in /  1029.3 hPa WSW 4.0 mph /  6.4 km/h 6.0 mph /  9.7 km/h 97 % 0.00 in /  0 mm 0 W/m2
01:55 45.3 °F /  7.4 °C 44.5 °F /  6.9 °C 30.40 in /  1029.3 hPa WSW 4.0 mph /  6.4 km/h 6.0 mph /  9.7 km/h 97 % 0.00 in /  0 mm 0 W/m2
02:00 45.3 °F /  7.4 °C 44.5 °F /  6.9 °C 30.40 in /  1029.3 hPa WSW 4.0 mph /  6.4 km/h 4.0 mph /  6.4 km/h 97 % 0.00 in /  0 mm 0 W/m2
02:05 45.4 °F /  7.4 °C 44.6 °F /  7 °C 30.40 in /  1029.3 hPa WSW 3.0 mph /  4.8 km/h 4.0 mph /  6.4 km/h 97 % 0.00 in /  0 mm 0 W/m2
02:15 45.4 °F /  7.4 °C 44.6 °F /  7 °C 30.40 in /  1029.3 hPa Calm   1.0 mph /  1.6 km/h 97 % 0.00 in /  0 mm 0 W/m2
02:20 45.3 °F /  7.4 °C 44.5 °F /  6.9 °C 30.40 in /  1029.3 hPa Calm   1.0 mph /  1.6 km/h 97 % 0.00 in /  0 mm 0 W/m2
02:25 45.3 °F /  7.4 °C 44.5 °F /  6.9 °C 30.40 in /  1029.3 hPa Calm   4.0 mph /  6.4 km/h 97 % 0.00 in /  0 mm 0 W/m2
02:30 45.5 °F /  7.5 °C 44.7 °F /  7.1 °C 30.40 in /  1029.3 hPa WSW 1.0 mph /  1.6 km/h 1.0 mph /  1.6 km/h 97 % 0.00 in /  0 mm 0 W/m2
02:35 45.9 °F /  7.7 °C 45.1 °F /  7.3 °C 30.40 in /  1029.3 hPa WNW 3.0 mph /  4.8 km/h 7.0 mph /  11.3 km/h 97 % 0.00 in /  0 mm 0 W/m2
02:40 46.5 °F /  8.1 °C 46.0 °F /  7.8 °C 30.40 in /  1029.3 hPa WNW 6.0 mph /  9.7 km/h 10.0 mph /  16.1 km/h 98 % 0.00 in /  0 mm 0 W/m2
02:50 47.3 °F /  8.5 °C 46.5 °F /  8.1 °C 30.39 in /  1029 hPa WNW 9.0 mph /  14.5 km/h 9.0 mph /  14.5 km/h 97 % 0.00 in /  0 mm 0 W/m2
02:55 47.4 °F /  8.6 °C 46.6 °F /  8.1 °C 30.40 in /  1029.3 hPa WNW 9.0 mph /  14.5 km/h 12.0 mph /  19.3 km/h 97 % 0.00 in /  0 mm 0 W/m2
03:00 47.5 °F /  8.6 °C 46.7 °F /  8.2 °C 30.39 in /  1029 hPa NW 8.0 mph /  12.9 km/h 9.0 mph /  14.5 km/h 97 % 0.00 in /  0 mm 0 W/m2
03:05 47.5 °F /  8.6 °C 46.7 °F /  8.2 °C 30.39 in /  1029 hPa West 9.0 mph /  14.5 km/h 12.0 mph /  19.3 km/h 97 % 0.00 in /  0 mm 0 W/m2
03:10 47.7 °F /  8.7 °C 46.9 °F /  8.3 °C 30.39 in /  1029 hPa WNW 9.0 mph /  14.5 km/h 9.0 mph /  14.5 km/h 97 % 0.00 in /  0 mm 0 W/m2
03:15 47.7 °F /  8.7 °C 46.9 °F /  8.3 °C 30.39 in /  1029 hPa NW 9.0 mph /  14.5 km/h 9.0 mph /  14.5 km/h 97 % 0.00 in /  0 mm 0 W/m2
03:25 47.8 °F /  8.8 °C 47.0 °F /  8.3 °C 30.39 in /  1029 hPa WNW 8.0 mph /  12.9 km/h 10.0 mph /  16.1 km/h 97 % 0.00 in /  0 mm 0 W/m2
03:30 47.9 °F /  8.8 °C 47.1 °F /  8.4 °C 30.40 in /  1029.3 hPa WNW 8.0 mph /  12.9 km/h 8.0 mph /  12.9 km/h 97 % 0.00 in /  0 mm 0 W/m2
03:35 48.0 °F /  8.9 °C 47.2 °F /  8.4 °C 30.40 in /  1029.3 hPa WNW 6.0 mph /  9.7 km/h 8.0 mph /  12.9 km/h 97 % 0.00 in /  0 mm 0 W/m2
03:40 48.1 °F /  8.9 °C 47.3 °F /  8.5 °C 30.40 in /  1029.3 hPa WNW 6.0 mph /  9.7 km/h 6.0 mph /  9.7 km/h 97 % 0.00 in /  0 mm 0 W/m2
03:45 48.2 °F /  9 °C 47.1 °F /  8.4 °C 30.40 in /  1029.3 hPa West 6.0 mph /  9.7 km/h 6.0 mph /  9.7 km/h 96 % 0.00 in /  0 mm 0 W/m2
03:50 48.2 °F /  9 °C 47.1 °F /  8.4 °C 30.40 in /  1029.3 hPa NW 7.0 mph /  11.3 km/h 10.0 mph /  16.1 km/h 96 % 0.00 in /  0 mm 0 W/m2
03:55 48.3 °F /  9.1 °C 47.2 °F /  8.4 °C 30.40 in /  1029.3 hPa NW 8.0 mph /  12.9 km/h 10.0 mph /  16.1 km/h 96 % 0.00 in /  0 mm 0 W/m2
04:05 48.2 °F /  9 °C 47.1 °F /  8.4 °C 30.40 in /  1029.3 hPa WNW 7.0 mph /  11.3 km/h 7.0 mph /  11.3 km/h 96 % 0.00 in /  0 mm 0 W/m2
04:10 48.2 °F /  9 °C 46.8 °F /  8.2 °C 30.40 in /  1029.3 hPa WNW 7.0 mph /  11.3 km/h 7.0 mph /  11.3 km/h 95 % 0.00 in /  0 mm 0 W/m2
04:15 48.3 °F /  9.1 °C 46.9 °F /  8.3 °C 30.40 in /  1029.3 hPa NW 7.0 mph /  11.3 km/h 7.0 mph /  11.3 km/h 95 % 0.00 in /  0 mm 0 W/m2
04:20 48.3 °F /  9.1 °C 46.9 °F /  8.3 °C 30.40 in /  1029.3 hPa West 6.0 mph /  9.7 km/h 9.0 mph /  14.5 km/h 95 % 0.00 in /  0 mm 0 W/m2
04:25 48.2 °F /  9 °C 46.8 °F /  8.2 °C 30.40 in /  1029.3 hPa WNW 7.0 mph /  11.3 km/h 10.0 mph /  16.1 km/h 95 % 0.00 in /  0 mm 0 W/m2
04:30 48.2 °F /  9 °C 46.8 °F /  8.2 °C 30.40 in /  1029.3 hPa WNW 6.0 mph /  9.7 km/h 6.0 mph /  9.7 km/h 95 % 0.00 in /  0 mm 0 W/m2
04:40 48.0 °F /  8.9 °C 46.6 °F /  8.1 °C 30.40 in /  1029.3 hPa WNW 7.0 mph /  11.3 km/h 7.0 mph /  11.3 km/h 95 % 0.00 in /  0 mm 0 W/m2
04:45 47.9 °F /  8.8 °C 46.3 °F /  7.9 °C 30.40 in /  1029.3 hPa WNW 7.0 mph /  11.3 km/h 7.0 mph /  11.3 km/h 94 % 0.00 in /  0 mm 0 W/m2
04:50 47.7 °F /  8.7 °C 46.1 °F /  7.8 °C 30.40 in /  1029.3 hPa WNW 7.0 mph /  11.3 km/h 7.0 mph /  11.3 km/h 94 % 0.00 in /  0 mm 0 W/m2
04:55 47.6 °F /  8.7 °C 46.2 °F /  7.9 °C 30.40 in /  1029.3 hPa WNW 8.0 mph /  12.9 km/h 8.0 mph /  12.9 km/h 95 % 0.00 in /  0 mm 0 W/m2
05:00 47.5 °F /  8.6 °C 46.1 °F /  7.8 °C 30.40 in /  1029.3 hPa WNW 7.0 mph /  11.3 km/h 7.0 mph /  11.3 km/h 95 % 0.00 in /  0 mm 0 W/m2
05:05 47.4 °F /  8.6 °C 46.0 °F /  7.8 °C 30.40 in /  1029.3 hPa WNW 6.0 mph /  9.7 km/h 7.0 mph /  11.3 km/h 95 % 0.00 in /  0 mm 0 W/m2
05:15 47.3 °F /  8.5 °C 45.7 °F /  7.6 °C 30.40 in /  1029.3 hPa WNW 7.0 mph /  11.3 km/h 7.0 mph /  11.3 km/h 94 % 0.00 in /  0 mm 0 W/m2
05:20 47.2 °F /  8.4 °C 45.8 °F /  7.7 °C 30.40 in /  1029.3 hPa WNW 6.0 mph /  9.7 km/h 6.0 mph /  9.7 km/h 95 % 0.00 in /  0 mm 0 W/m2
05:25 47.2 °F /  8.4 °C 45.8 °F /  7.7 °C 30.40 in /  1029.3 hPa WNW 6.0 mph /  9.7 km/h 6.0 mph /  9.7 km/h 95 % 0.00 in /  0 mm 0 W/m2
05:30 47.1 °F /  8.4 °C 45.7 °F /  7.6 °C 30.40 in /  1029.3 hPa NW 6.0 mph /  9.7 km/h 6.0 mph /  9.7 km/h 95 % 0.00 in /  0 mm 0 W/m2
05:35 47.1 °F /  8.4 °C 45.7 °F /  7.6 °C 30.40 in /  1029.3 hPa WNW 6.0 mph /  9.7 km/h 7.0 mph /  11.3 km/h 95 % 0.00 in /  0 mm 0 W/m2
05:40 47.1 °F /  8.4 °C 45.7 °F /  7.6 °C 30.40 in /  1029.3 hPa NW 6.0 mph /  9.7 km/h 7.0 mph /  11.3 km/h 95 % 0.00 in /  0 mm 0 W/m2
05:45 47.0 °F /  8.3 °C 45.6 °F /  7.6 °C 30.40 in /  1029.3 hPa WNW 6.0 mph /  9.7 km/h 7.0 mph /  11.3 km/h 95 % 0.00 in /  0 mm 0 W/m2
05:55 47.0 °F /  8.3 °C 45.6 °F /  7.6 °C 30.40 in /  1029.3 hPa West 6.0 mph /  9.7 km/h 9.0 mph /  14.5 km/h 95 % 0.00 in /  0 mm 0 W/m2
06:05 47.2 °F /  8.4 °C 45.8 °F /  7.7 °C 30.41 in /  1029.7 hPa NW 7.0 mph /  11.3 km/h 8.0 mph /  12.9 km/h 95 % 0.00 in /  0 mm 0 W/m2
06:10 47.4 °F /  8.6 °C 46.0 °F /  7.8 °C 30.41 in /  1029.7 hPa WNW 8.0 mph /  12.9 km/h 8.0 mph /  12.9 km/h 95 % 0.00 in /  0 mm 0 W/m2
06:15 47.6 °F /  8.7 °C 46.2 °F /  7.9 °C 30.41 in /  1029.7 hPa NW 8.0 mph /  12.9 km/h 8.0 mph /  12.9 km/h 95 % 0.00 in /  0 mm 0 W/m2
06:20 47.8 °F /  8.8 °C 46.4 °F /  8 °C 30.41 in /  1029.7 hPa NW 7.0 mph /  11.3 km/h 7.0 mph /  11.3 km/h 95 % 0.00 in /  0 mm 0 W/m2
06:25 47.9 °F /  8.8 °C 46.5 °F /  8.1 °C 30.41 in /  1029.7 hPa NW 6.0 mph /  9.7 km/h 7.0 mph /  11.3 km/h 95 % 0.00 in /  0 mm 0 W/m2
06:35 48.2 °F /  9 °C 46.8 °F /  8.2 °C 30.42 in /  1030 hPa NW 6.0 mph /  9.7 km/h 7.0 mph /  11.3 km/h 95 % 0.00 in /  0 mm 0 W/m2
06:40 48.2 °F /  9 °C 46.8 °F /  8.2 °C 30.42 in /  1030 hPa WNW 6.0 mph /  9.7 km/h 7.0 mph /  11.3 km/h 95 % 0.00 in /  0 mm 0 W/m2
06:50 48.3 °F /  9.1 °C 46.9 °F /  8.3 °C 30.42 in /  1030 hPa NW 6.0 mph /  9.7 km/h 6.0 mph /  9.7 km/h 95 % 0.00 in /  0 mm 0 W/m2
06:55 48.3 °F /  9.1 °C 46.7 °F /  8.2 °C 30.42 in /  1030 hPa WNW 5.0 mph /  8 km/h 6.0 mph /  9.7 km/h 94 % 0.00 in /  0 mm 0 W/m2
07:00 48.1 °F /  8.9 °C 46.5 °F /  8.1 °C 30.42 in /  1030 hPa WNW 6.0 mph /  9.7 km/h 6.0 mph /  9.7 km/h 94 % 0.00 in /  0 mm 0 W/m2
07:05 48.0 °F /  8.9 °C 46.4 °F /  8 °C 30.42 in /  1030 hPa WNW 6.0 mph /  9.7 km/h 6.0 mph /  9.7 km/h 94 % 0.00 in /  0 mm 0 W/m2
07:10 47.9 °F /  8.8 °C 46.3 °F /  7.9 °C 30.42 in /  1030 hPa NW 6.0 mph /  9.7 km/h 6.0 mph /  9.7 km/h 94 % 0.00 in /  0 mm 0 W/m2
07:15 47.9 °F /  8.8 °C 46.3 °F /  7.9 °C 30.42 in /  1030 hPa NW 6.0 mph /  9.7 km/h 7.0 mph /  11.3 km/h 94 % 0.00 in /  0 mm 0 W/m2
07:25 47.9 °F /  8.8 °C 46.3 °F /  7.9 °C 30.43 in /  1030.4 hPa NW 7.0 mph /  11.3 km/h 8.0 mph /  12.9 km/h 94 % 0.00 in /  0 mm 0 W/m2
07:30 48.0 °F /  8.9 °C 46.6 °F /  8.1 °C 30.42 in /  1030 hPa WNW 6.0 mph /  9.7 km/h 8.0 mph /  12.9 km/h 95 % 0.00 in /  0 mm 0 W/m2
07:35 48.0 °F /  8.9 °C 46.6 °F /  8.1 °C 30.43 in /  1030.4 hPa WNW 5.0 mph /  8 km/h 8.0 mph /  12.9 km/h 95 % 0.00 in /  0 mm 0 W/m2
07:40 48.0 °F /  8.9 °C 46.4 °F /  8 °C 30.43 in /  1030.4 hPa WNW 5.0 mph /  8 km/h 7.0 mph /  11.3 km/h 94 % 0.00 in /  0 mm 0 W/m2
07:45 48.0 °F /  8.9 °C 46.4 °F /  8 °C 30.43 in /  1030.4 hPa NW 5.0 mph /  8 km/h 7.0 mph /  11.3 km/h 94 % 0.00 in /  0 mm 0 W/m2
07:50 48.0 °F /  8.9 °C 46.4 °F /  8 °C 30.43 in /  1030.4 hPa WNW 6.0 mph /  9.7 km/h 6.0 mph /  9.7 km/h 94 % 0.00 in /  0 mm 0 W/m2
08:00 47.9 °F /  8.8 °C 46.3 °F /  7.9 °C 30.43 in /  1030.4 hPa WNW 5.0 mph /  8 km/h 6.0 mph /  9.7 km/h 94 % 0.00 in /  0 mm 0 W/m2
08:05 47.8 °F /  8.8 °C 46.2 °F /  7.9 °C 30.43 in /  1030.4 hPa NW 5.0 mph /  8 km/h 6.0 mph /  9.7 km/h 94 % 0.00 in /  0 mm 0 W/m2
08:10 47.6 °F /  8.7 °C 46.0 °F /  7.8 °C 30.43 in /  1030.4 hPa NW 4.0 mph /  6.4 km/h 6.0 mph /  9.7 km/h 94 % 0.00 in /  0 mm 0 W/m2
08:15 47.4 °F /  8.6 °C 46.0 °F /  7.8 °C 30.43 in /  1030.4 hPa NW 4.0 mph /  6.4 km/h 6.0 mph /  9.7 km/h 95 % 0.00 in /  0 mm 0 W/m2
08:20 47.3 °F /  8.5 °C 45.7 °F /  7.6 °C 30.43 in /  1030.4 hPa NW 4.0 mph /  6.4 km/h 4.0 mph /  6.4 km/h 94 % 0.00 in /  0 mm 5 W/m2
08:25 47.2 °F /  8.4 °C 45.8 °F /  7.7 °C 30.43 in /  1030.4 hPa NW 4.0 mph /  6.4 km/h 4.0 mph /  6.4 km/h 95 % 0.00 in /  0 mm 7 W/m2
08:35 47.1 °F /  8.4 °C 45.7 °F /  7.6 °C 30.44 in /  1030.7 hPa WNW 3.0 mph /  4.8 km/h 6.0 mph /  9.7 km/h 95 % 0.00 in /  0 mm 9 W/m2
08:40 47.2 °F /  8.4 °C 45.8 °F /  7.7 °C 30.44 in /  1030.7 hPa WNW 4.0 mph /  6.4 km/h 5.0 mph /  8 km/h 95 % 0.00 in /  0 mm 11 W/m2
08:45 47.3 °F /  8.5 °C 45.9 °F /  7.7 °C 30.44 in /  1030.7 hPa WNW 5.0 mph /  8 km/h 5.0 mph /  8 km/h 95 % 0.00 in /  0 mm 14 W/m2
08:50 47.3 °F /  8.5 °C 45.9 °F /  7.7 °C 30.44 in /  1030.7 hPa WNW 4.0 mph /  6.4 km/h 4.0 mph /  6.4 km/h 95 % 0.00 in /  0 mm 21 W/m2
08:55 47.2 °F /  8.4 °C 45.8 °F /  7.7 °C 30.44 in /  1030.7 hPa WNW 3.0 mph /  4.8 km/h 4.0 mph /  6.4 km/h 95 % 0.00 in /  0 mm 32 W/m2
09:00 47.2 °F /  8.4 °C 45.8 °F /  7.7 °C 30.44 in /  1030.7 hPa WNW 2.0 mph /  3.2 km/h 2.0 mph /  3.2 km/h 95 % 0.00 in /  0 mm 33 W/m2
09:10 47.2 °F /  8.4 °C 46.1 °F /  7.8 °C 30.44 in /  1030.7 hPa WNW 2.0 mph /  3.2 km/h 2.0 mph /  3.2 km/h 96 % 0.00 in /  0 mm 46 W/m2
09:15 47.3 °F /  8.5 °C 46.2 °F /  7.9 °C 30.44 in /  1030.7 hPa WNW 2.0 mph /  3.2 km/h 3.0 mph /  4.8 km/h 96 % 0.00 in /  0 mm 32 W/m2
09:20 47.4 °F /  8.6 °C 46.3 °F /  7.9 °C 30.44 in /  1030.7 hPa WNW 3.0 mph /  4.8 km/h 4.0 mph /  6.4 km/h 96 % 0.00 in /  0 mm 33 W/m2
09:25 47.5 °F /  8.6 °C 46.4 °F /  8 °C 30.44 in /  1030.7 hPa WNW 3.0 mph /  4.8 km/h 4.0 mph /  6.4 km/h 96 % 0.00 in /  0 mm 42 W/m2
09:30 47.6 °F /  8.7 °C 46.5 °F /  8.1 °C 30.44 in /  1030.7 hPa WNW 3.0 mph /  4.8 km/h 5.0 mph /  8 km/h 96 % 0.00 in /  0 mm 44 W/m2
09:35 47.7 °F /  8.7 °C 46.6 °F /  8.1 °C 30.44 in /  1030.7 hPa WNW 3.0 mph /  4.8 km/h 5.0 mph /  8 km/h 96 % 0.00 in /  0 mm 139 W/m2
09:45 48.4 °F /  9.1 °C 47.3 °F /  8.5 °C 30.45 in /  1031 hPa NW 5.0 mph /  8 km/h 7.0 mph /  11.3 km/h 96 % 0.00 in /  0 mm 146 W/m2
09:50 48.8 °F /  9.3 °C 47.7 °F /  8.7 °C 30.45 in /  1031 hPa NW 6.0 mph /  9.7 km/h 6.0 mph /  9.7 km/h 96 % 0.00 in /  0 mm 86 W/m2
09:55 49.0 °F /  9.4 °C 47.9 °F /  8.8 °C 30.45 in /  1031 hPa WNW 5.0 mph /  8 km/h 10.0 mph /  16.1 km/h 96 % 0.00 in /  0 mm 95 W/m2
10:00 49.3 °F /  9.6 °C 48.2 °F /  9 °C 30.45 in /  1031 hPa WNW 5.0 mph /  8 km/h 5.0 mph /  8 km/h 96 % 0.00 in /  0 mm 109 W/m2
10:05 49.6 °F /  9.8 °C 48.5 °F /  9.2 °C 30.45 in /  1031 hPa WNW 5.0 mph /  8 km/h 5.0 mph /  8 km/h 96 % 0.00 in /  0 mm 199 W/m2
10:10 50.1 °F /  10.1 °C 49.0 °F /  9.4 °C 30.45 in /  1031 hPa NW 5.0 mph /  8 km/h 6.0 mph /  9.7 km/h 96 % 0.00 in /  0 mm 137 W/m2
10:15 50.4 °F /  10.2 °C 49.0 °F /  9.4 °C 30.45 in /  1031 hPa WNW 5.0 mph /  8 km/h 6.0 mph /  9.7 km/h 95 % 0.00 in /  0 mm 104 W/m2
10:25 50.4 °F /  10.2 °C 48.7 °F /  9.3 °C 30.45 in /  1031 hPa NW 4.0 mph /  6.4 km/h 5.0 mph /  8 km/h 94 % 0.00 in /  0 mm 65 W/m2
10:30 50.4 °F /  10.2 °C 48.5 °F /  9.2 °C 30.45 in /  1031 hPa WNW 4.0 mph /  6.4 km/h 7.0 mph /  11.3 km/h 93 % 0.00 in /  0 mm 51 W/m2
10:35 50.3 °F /  10.2 °C 48.4 °F /  9.1 °C 30.45 in /  1031 hPa WNW 3.0 mph /  4.8 km/h 7.0 mph /  11.3 km/h 93 % 0.00 in /  0 mm 49 W/m2
10:40 50.2 °F /  10.1 °C 48.3 °F /  9.1 °C 30.46 in /  1031.4 hPa WNW 3.0 mph /  4.8 km/h 3.0 mph /  4.8 km/h 93 % 0.00 in /  0 mm 42 W/m2
10:45 50.2 °F /  10.1 °C 48.3 °F /  9.1 °C 30.45 in /  1031 hPa WNW 2.0 mph /  3.2 km/h 3.0 mph /  4.8 km/h 93 % 0.00 in /  0 mm 35 W/m2
10:50 50.1 °F /  10.1 °C 48.2 °F /  9 °C 30.46 in /  1031.4 hPa NW 2.0 mph /  3.2 km/h 2.0 mph /  3.2 km/h 93 % 0.00 in /  0 mm 37 W/m2
11:00 49.9 °F /  9.9 °C 48.0 °F /  8.9 °C 30.45 in /  1031 hPa NW 2.0 mph /  3.2 km/h 2.0 mph /  3.2 km/h 93 % 0.00 in /  0 mm 49 W/m2
11:05 49.9 °F /  9.9 °C 48.0 °F /  8.9 °C 30.45 in /  1031 hPa NW 2.0 mph /  3.2 km/h 4.0 mph /  6.4 km/h 93 % 0.00 in /  0 mm 62 W/m2
11:15 50.0 °F /  10 °C 48.3 °F /  9.1 °C 30.46 in /  1031.4 hPa NW 2.0 mph /  3.2 km/h 3.0 mph /  4.8 km/h 94 % 0.00 in /  0 mm 49 W/m2
11:20 50.0 °F /  10 °C 48.3 °F /  9.1 °C 30.46 in /  1031.4 hPa NW 1.0 mph /  1.6 km/h 1.0 mph /  1.6 km/h 94 % 0.00 in /  0 mm 40 W/m2
11:25 50.0 °F /  10 °C 48.3 °F /  9.1 °C 30.46 in /  1031.4 hPa NW 1.0 mph /  1.6 km/h 3.0 mph /  4.8 km/h 94 % 0.00 in /  0 mm 51 W/m2
11:35 49.9 °F /  9.9 °C 48.2 °F /  9 °C 30.45 in /  1031 hPa NW 2.0 mph /  3.2 km/h 2.0 mph /  3.2 km/h 94 % 0.00 in /  0 mm 42 W/m2
11:40 49.9 °F /  9.9 °C 48.2 °F /  9 °C 30.45 in /  1031 hPa NW 1.0 mph /  1.6 km/h 4.0 mph /  6.4 km/h 94 % 0.00 in /  0 mm 47 W/m2
11:45 50.0 °F /  10 °C 48.3 °F /  9.1 °C 30.45 in /  1031 hPa NW 2.0 mph /  3.2 km/h 4.0 mph /  6.4 km/h 94 % 0.00 in /  0 mm 67 W/m2
11:50 50.0 °F /  10 °C 48.3 °F /  9.1 °C 30.45 in /  1031 hPa NW 2.0 mph /  3.2 km/h 2.0 mph /  3.2 km/h 94 % 0.00 in /  0 mm 60 W/m2
11:55 50.0 °F /  10 °C 48.3 °F /  9.1 °C 30.45 in /  1031 hPa WNW 2.0 mph /  3.2 km/h 2.0 mph /  3.2 km/h 94 % 0.00 in /  0 mm 81 W/m2
12:00 50.1 °F /  10.1 °C 48.4 °F /  9.1 °C 30.45 in /  1031 hPa WNW 3.0 mph /  4.8 km/h 3.0 mph /  4.8 km/h 94 % 0.00 in /  0 mm 95 W/m2
12:10 50.2 °F /  10.1 °C 48.5 °F /  9.2 °C 30.45 in /  1031 hPa NW 3.0 mph /  4.8 km/h 5.0 mph /  8 km/h 94 % 0.00 in /  0 mm 86 W/m2
12:15 50.3 °F /  10.2 °C 48.6 °F /  9.2 °C 30.45 in /  1031 hPa NNW 3.0 mph /  4.8 km/h 5.0 mph /  8 km/h 94 % 0.00 in /  0 mm 84 W/m2
12:20 50.4 °F /  10.2 °C 48.5 °F /  9.2 °C 30.44 in /  1030.7 hPa NW 2.0 mph /  3.2 km/h 2.0 mph /  3.2 km/h 93 % 0.00 in /  0 mm 104 W/m2
12:25 50.5 °F /  10.3 °C 48.6 °F /  9.2 °C 30.44 in /  1030.7 hPa NNW 1.0 mph /  1.6 km/h 2.0 mph /  3.2 km/h 93 % 0.00 in /  0 mm 167 W/m2
12:30 50.7 °F /  10.4 °C 48.7 °F /  9.3 °C 30.44 in /  1030.7 hPa NNW 1.0 mph /  1.6 km/h 1.0 mph /  1.6 km/h 93 % 0.00 in /  0 mm 135 W/m2
12:35 50.9 °F /  10.5 °C 48.9 °F /  9.4 °C 30.44 in /  1030.7 hPa NNW 1.0 mph /  1.6 km/h 1.0 mph /  1.6 km/h 93 % 0.00 in /  0 mm 167 W/m2
12:45 51.4 °F /  10.8 °C 49.4 °F /  9.7 °C 30.43 in /  1030.4 hPa NNW 2.0 mph /  3.2 km/h 4.0 mph /  6.4 km/h 93 % 0.00 in /  0 mm 151 W/m2
12:50 51.6 °F /  10.9 °C 49.4 °F /  9.7 °C 30.44 in /  1030.7 hPa NNW 2.0 mph /  3.2 km/h 3.0 mph /  4.8 km/h 92 % 0.00 in /  0 mm 135 W/m2
12:55 51.7 °F /  10.9 °C 49.2 °F /  9.6 °C 30.43 in /  1030.4 hPa NNW 2.0 mph /  3.2 km/h 3.0 mph /  4.8 km/h 91 % 0.00 in /  0 mm 79 W/m2
13:00 51.7 °F /  10.9 °C 49.2 °F /  9.6 °C 30.43 in /  1030.4 hPa NW 2.0 mph /  3.2 km/h 3.0 mph /  4.8 km/h 91 % 0.00 in /  0 mm 72 W/m2
13:05 51.8 °F /  11 °C 49.3 °F /  9.6 °C 30.43 in /  1030.4 hPa NW 2.0 mph /  3.2 km/h 3.0 mph /  4.8 km/h 91 % 0.00 in /  0 mm 130 W/m2
13:10 51.8 °F /  11 °C 49.0 °F /  9.4 °C 30.43 in /  1030.4 hPa NW 1.0 mph /  1.6 km/h 1.0 mph /  1.6 km/h 90 % 0.00 in /  0 mm 69 W/m2
13:15 51.9 °F /  11.1 °C 49.1 °F /  9.5 °C 30.43 in /  1030.4 hPa NW 1.0 mph /  1.6 km/h 1.0 mph /  1.6 km/h 90 % 0.00 in /  0 mm 56 W/m2
13:25 51.9 °F /  11.1 °C 48.8 °F /  9.3 °C 30.43 in /  1030.4 hPa NW 3.0 mph /  4.8 km/h 3.0 mph /  4.8 km/h 89 % 0.00 in /  0 mm 40 W/m2
13:30 51.8 °F /  11 °C 48.7 °F /  9.3 °C 30.43 in /  1030.4 hPa NW 4.0 mph /  6.4 km/h 4.0 mph /  6.4 km/h 89 % 0.00 in /  0 mm 23 W/m2
13:35 51.7 °F /  10.9 °C 48.3 °F /  9.1 °C 30.43 in /  1030.4 hPa WNW 4.0 mph /  6.4 km/h 6.0 mph /  9.7 km/h 88 % 0.00 in /  0 mm 39 W/m2
13:40 51.6 °F /  10.9 °C 48.2 °F /  9 °C 30.43 in /  1030.4 hPa NW 5.0 mph /  8 km/h 5.0 mph /  8 km/h 88 % 0.00 in /  0 mm 35 W/m2
13:45 51.5 °F /  10.8 °C 48.1 °F /  8.9 °C 30.43 in /  1030.4 hPa NW 4.0 mph /  6.4 km/h 5.0 mph /  8 km/h 88 % 0.00 in /  0 mm 32 W/m2
13:50 51.4 °F /  10.8 °C 48.0 °F /  8.9 °C 30.43 in /  1030.4 hPa NW 3.0 mph /  4.8 km/h 3.0 mph /  4.8 km/h 88 % 0.00 in /  0 mm 32 W/m2
14:00 51.3 °F /  10.7 °C 47.9 °F /  8.8 °C 30.43 in /  1030.4 hPa NW 2.0 mph /  3.2 km/h 2.0 mph /  3.2 km/h 88 % 0.00 in /  0 mm 28 W/m2
14:05 51.3 °F /  10.7 °C 47.9 °F /  8.8 °C 30.44 in /  1030.7 hPa NW 2.0 mph /  3.2 km/h 2.0 mph /  3.2 km/h 88 % 0.00 in /  0 mm 32 W/m2
14:10 51.2 °F /  10.7 °C 48.1 °F /  8.9 °C 30.44 in /  1030.7 hPa NW 2.0 mph /  3.2 km/h 3.0 mph /  4.8 km/h 89 % 0.00 in /  0 mm 21 W/m2
14:15 51.2 °F /  10.7 °C 48.1 °F /  8.9 °C 30.44 in /  1030.7 hPa NW 1.0 mph /  1.6 km/h 3.0 mph /  4.8 km/h 89 % 0.00 in /  0 mm 19 W/m2
14:20 51.1 °F /  10.6 °C 48.0 °F /  8.9 °C 30.44 in /  1030.7 hPa WNW 2.0 mph /  3.2 km/h 7.0 mph /  11.3 km/h 89 % 0.00 in /  0 mm 25 W/m2
14:25 51.0 °F /  10.6 °C 47.9 °F /  8.8 °C 30.44 in /  1030.7 hPa NNW 3.0 mph /  4.8 km/h 7.0 mph /  11.3 km/h 89 % 0.00 in /  0 mm 26 W/m2
14:35 50.9 °F /  10.5 °C 47.8 °F /  8.8 °C 30.44 in /  1030.7 hPa NW 2.0 mph /  3.2 km/h 3.0 mph /  4.8 km/h 89 % 0.00 in /  0 mm 14 W/m2
14:40 50.9 °F /  10.5 °C 47.8 °F /  8.8 °C 30.44 in /  1030.7 hPa NW 1.0 mph /  1.6 km/h 1.0 mph /  1.6 km/h 89 % 0.00 in /  0 mm 32 W/m2
14:45 50.9 °F /  10.5 °C 48.1 °F /  8.9 °C 30.44 in /  1030.7 hPa NW 1.0 mph /  1.6 km/h 2.0 mph /  3.2 km/h 90 % 0.00 in /  0 mm 37 W/m2
14:50 50.9 °F /  10.5 °C 48.1 °F /  8.9 °C 30.44 in /  1030.7 hPa WNW 1.0 mph /  1.6 km/h 1.0 mph /  1.6 km/h 90 % 0.00 in /  0 mm 37 W/m2
14:55 50.8 °F /  10.4 °C 48.0 °F /  8.9 °C 30.44 in /  1030.7 hPa WNW 1.0 mph /  1.6 km/h 1.0 mph /  1.6 km/h 90 % 0.00 in /  0 mm 35 W/m2
15:00 50.8 °F /  10.4 °C 48.0 °F /  8.9 °C 30.44 in /  1030.7 hPa NW 1.0 mph /  1.6 km/h 2.0 mph /  3.2 km/h 90 % 0.00 in /  0 mm 26 W/m2
15:05 50.8 °F /  10.4 °C 48.0 °F /  8.9 °C 30.44 in /  1030.7 hPa NW 1.0 mph /  1.6 km/h 2.0 mph /  3.2 km/h 90 % 0.00 in /  0 mm 23 W/m2
15:10 50.8 °F /  10.4 °C 48.0 °F /  8.9 °C 30.44 in /  1030.7 hPa NW 1.0 mph /  1.6 km/h 1.0 mph /  1.6 km/h 90 % 0.00 in /  0 mm 23 W/m2
15:15 50.8 °F /  10.4 °C 48.0 °F /  8.9 °C 30.44 in /  1030.7 hPa West 2.0 mph /  3.2 km/h 4.0 mph /  6.4 km/h 90 % 0.00 in /  0 mm 18 W/m2
15:20 50.7 °F /  10.4 °C 47.9 °F /  8.8 °C 30.44 in /  1030.7 hPa WNW 3.0 mph /  4.8 km/h 5.0 mph /  8 km/h 90 % 0.00 in /  0 mm 18 W/m2
15:35 50.5 °F /  10.3 °C 47.7 °F /  8.7 °C 30.44 in /  1030.7 hPa WNW 5.0 mph /  8 km/h 7.0 mph /  11.3 km/h 90 % 0.00 in /  0 mm 11 W/m2
15:40 50.4 °F /  10.2 °C 47.6 °F /  8.7 °C 30.45 in /  1031 hPa WNW 5.0 mph /  8 km/h 6.0 mph /  9.7 km/h 90 % 0.00 in /  0 mm 9 W/m2
15:45 50.3 °F /  10.2 °C 47.8 °F /  8.8 °C 30.45 in /  1031 hPa NW 4.0 mph /  6.4 km/h 6.0 mph /  9.7 km/h 91 % 0.00 in /  0 mm 5 W/m2
15:55 50.1 °F /  10.1 °C 47.6 °F /  8.7 °C 30.44 in /  1030.7 hPa NW 2.0 mph /  3.2 km/h 4.0 mph /  6.4 km/h 91 % 0.00 in /  0 mm 7 W/m2
16:00 50.1 °F /  10.1 °C 47.6 °F /  8.7 °C 30.45 in /  1031 hPa WNW 3.0 mph /  4.8 km/h 6.0 mph /  9.7 km/h 91 % 0.00 in /  0 mm 5 W/m2
16:05 49.9 °F /  9.9 °C 47.4 °F /  8.6 °C 30.45 in /  1031 hPa NW 4.0 mph /  6.4 km/h 6.0 mph /  9.7 km/h 91 % 0.00 in /  0 mm 0 W/m2
16:10 49.8 °F /  9.9 °C 47.3 °F /  8.5 °C 30.45 in /  1031 hPa NW 4.0 mph /  6.4 km/h 4.0 mph /  6.4 km/h 91 % 0.00 in /  0 mm 0 W/m2
16:20 49.4 °F /  9.7 °C 46.9 °F /  8.3 °C 30.45 in /  1031 hPa NW 4.0 mph /  6.4 km/h 4.0 mph /  6.4 km/h 91 % 0.00 in /  0 mm 0 W/m2
16:25 49.2 °F /  9.6 °C 46.7 °F /  8.2 °C 30.45 in /  1031 hPa NW 3.0 mph /  4.8 km/h 4.0 mph /  6.4 km/h 91 % 0.00 in /  0 mm 0 W/m2
16:30 48.9 °F /  9.4 °C 46.4 °F /  8 °C 30.45 in /  1031 hPa NW 2.0 mph /  3.2 km/h 2.0 mph /  3.2 km/h 91 % 0.00 in /  0 mm 0 W/m2
16:35 48.7 °F /  9.3 °C 46.2 °F /  7.9 °C 30.45 in /  1031 hPa NW 1.0 mph /  1.6 km/h 2.0 mph /  3.2 km/h 91 % 0.00 in /  0 mm 0 W/m2
16:40 48.5 °F /  9.2 °C 46.3 °F /  7.9 °C 30.45 in /  1031 hPa Calm   1.0 mph /  1.6 km/h 92 % 0.00 in /  0 mm 0 W/m2
16:45 48.3 °F /  9.1 °C 45.8 °F /  7.7 °C 30.45 in /  1031 hPa Calm   1.0 mph /  1.6 km/h 91 % 0.00 in /  0 mm 0 W/m2
16:55 47.7 °F /  8.7 °C 45.5 °F /  7.5 °C 30.45 in /  1031 hPa Calm   1.0 mph /  1.6 km/h 92 % 0.00 in /  0 mm 0 W/m2
17:00 47.5 °F /  8.6 °C 45.3 °F /  7.4 °C 30.44 in /  1030.7 hPa Calm   1.0 mph /  1.6 km/h 92 % 0.00 in /  0 mm 0 W/m2
17:05 47.2 °F /  8.4 °C 45.0 °F /  7.2 °C 30.44 in /  1030.7 hPa Calm   1.0 mph /  1.6 km/h 92 % 0.00 in /  0 mm 0 W/m2
17:10 47.0 °F /  8.3 °C 44.8 °F /  7.1 °C 30.44 in /  1030.7 hPa Calm   1.0 mph /  1.6 km/h 92 % 0.00 in /  0 mm 0 W/m2
17:20 46.3 °F /  7.9 °C 44.1 °F /  6.7 °C 30.45 in /  1031 hPa Calm   1.0 mph /  1.6 km/h 92 % 0.00 in /  0 mm 0 W/m2
17:30 45.7 °F /  7.6 °C 43.5 °F /  6.4 °C 30.45 in /  1031 hPa Calm   1.0 mph /  1.6 km/h 92 % 0.00 in /  0 mm 0 W/m2
17:35 45.4 °F /  7.4 °C 43.5 °F /  6.4 °C 30.45 in /  1031 hPa Calm   1.0 mph /  1.6 km/h 93 % 0.00 in /  0 mm 0 W/m2
17:40 45.2 °F /  7.3 °C 43.3 °F /  6.3 °C 30.45 in /  1031 hPa Calm   1.0 mph /  1.6 km/h 93 % 0.00 in /  0 mm 0 W/m2
17:45 45.0 °F /  7.2 °C 43.1 °F /  6.2 °C 30.45 in /  1031 hPa Calm   1.0 mph /  1.6 km/h 93 % 0.00 in /  0 mm 0 W/m2
17:55 44.9 °F /  7.2 °C 43.3 °F /  6.3 °C 30.45 in /  1031 hPa Calm   1.0 mph /  1.6 km/h 94 % 0.00 in /  0 mm 0 W/m2
18:05 45.0 °F /  7.2 °C 43.7 °F /  6.5 °C 30.45 in /  1031 hPa Calm   1.0 mph /  1.6 km/h 95 % 0.00 in /  0 mm 0 W/m2
18:10 45.0 °F /  7.2 °C 43.7 °F /  6.5 °C 30.45 in /  1031 hPa Calm   1.0 mph /  1.6 km/h 95 % 0.00 in /  0 mm 0 W/m2
18:15 45.1 °F /  7.3 °C 43.8 °F /  6.6 °C 30.45 in /  1031 hPa Calm   1.0 mph /  1.6 km/h 95 % 0.00 in /  0 mm 0 W/m2
18:20 45.2 °F /  7.3 °C 43.9 °F /  6.6 °C 30.45 in /  1031 hPa Calm   1.0 mph /  1.6 km/h 95 % 0.00 in /  0 mm 0 W/m2
18:25 45.3 °F /  7.4 °C 44.0 °F /  6.7 °C 30.45 in /  1031 hPa Calm   1.0 mph /  1.6 km/h 95 % 0.00 in /  0 mm 0 W/m2
18:30 45.3 °F /  7.4 °C 44.0 °F /  6.7 °C 30.45 in /  1031 hPa Calm   1.0 mph /  1.6 km/h 95 % 0.00 in /  0 mm 0 W/m2
18:40 45.3 °F /  7.4 °C 44.0 °F /  6.7 °C 30.45 in /  1031 hPa Calm   1.0 mph /  1.6 km/h 95 % 0.00 in /  0 mm 0 W/m2
18:45 45.2 °F /  7.3 °C 43.9 °F /  6.6 °C 30.45 in /  1031 hPa Calm   2.0 mph /  3.2 km/h 95 % 0.00 in /  0 mm 0 W/m2
18:50 45.3 °F /  7.4 °C 44.2 °F /  6.8 °C 30.45 in /  1031 hPa NW 2.0 mph /  3.2 km/h 4.0 mph /  6.4 km/h 96 % 0.00 in /  0 mm 0 W/m2
18:55 45.8 °F /  7.7 °C 44.7 °F /  7.1 °C 30.45 in /  1031 hPa NW 4.0 mph /  6.4 km/h 4.0 mph /  6.4 km/h 96 % 0.00 in /  0 mm 0 W/m2
19:00 46.3 °F /  7.9 °C 45.2 °F /  7.3 °C 30.45 in /  1031 hPa WNW 4.0 mph /  6.4 km/h 4.0 mph /  6.4 km/h 96 % 0.00 in /  0 mm 0 W/m2
19:05 46.7 °F /  8.2 °C 45.9 °F /  7.7 °C 30.45 in /  1031 hPa West 4.0 mph /  6.4 km/h 6.0 mph /  9.7 km/h 97 % 0.00 in /  0 mm 0 W/m2
19:15 46.6 °F /  8.1 °C 45.5 °F /  7.5 °C 30.45 in /  1031 hPa WNW 3.0 mph /  4.8 km/h 5.0 mph /  8 km/h 96 % 0.00 in /  0 mm 0 W/m2
19:20 46.5 °F /  8.1 °C 45.1 °F /  7.3 °C 30.45 in /  1031 hPa WNW 3.0 mph /  4.8 km/h 3.0 mph /  4.8 km/h 95 % 0.00 in /  0 mm 0 W/m2
19:25 46.5 °F /  8.1 °C 45.4 °F /  7.4 °C 30.45 in /  1031 hPa NW 3.0 mph /  4.8 km/h 5.0 mph /  8 km/h 96 % 0.00 in /  0 mm 0 W/m2
19:30 46.7 °F /  8.2 °C 45.6 °F /  7.6 °C 30.45 in /  1031 hPa NW 4.0 mph /  6.4 km/h 4.0 mph /  6.4 km/h 96 % 0.00 in /  0 mm 0 W/m2
19:35 46.8 °F /  8.2 °C 45.7 °F /  7.6 °C 30.45 in /  1031 hPa NW 4.0 mph /  6.4 km/h 4.0 mph /  6.4 km/h 96 % 0.00 in /  0 mm 0 W/m2
19:45 47.0 °F /  8.3 °C 45.9 °F /  7.7 °C 30.45 in /  1031 hPa WNW 4.0 mph /  6.4 km/h 6.0 mph /  9.7 km/h 96 % 0.00 in /  0 mm 0 W/m2
19:50 47.0 °F /  8.3 °C 45.6 °F /  7.6 °C 30.45 in /  1031 hPa WNW 4.0 mph /  6.4 km/h 5.0 mph /  8 km/h 95 % 0.00 in /  0 mm 0 W/m2
19:55 47.0 °F /  8.3 °C 45.6 °F /  7.6 °C 30.45 in /  1031 hPa WNW 4.0 mph /  6.4 km/h 5.0 mph /  8 km/h 95 % 0.00 in /  0 mm 0 W/m2
20:00 46.9 °F /  8.3 °C 45.5 °F /  7.5 °C 30.45 in /  1031 hPa WNW 4.0 mph /  6.4 km/h 4.0 mph /  6.4 km/h 95 % 0.00 in /  0 mm 0 W/m2
20:05 46.8 °F /  8.2 °C 45.4 °F /  7.4 °C 30.45 in /  1031 hPa WNW 3.0 mph /  4.8 km/h 4.0 mph /  6.4 km/h 95 % 0.00 in /  0 mm 0 W/m2
20:10 46.6 °F /  8.1 °C 45.0 °F /  7.2 °C 30.45 in /  1031 hPa WNW 3.0 mph /  4.8 km/h 3.0 mph /  4.8 km/h 94 % 0.00 in /  0 mm 0 W/m2
20:20 46.1 °F /  7.8 °C 44.5 °F /  6.9 °C 30.45 in /  1031 hPa WNW 3.0 mph /  4.8 km/h 3.0 mph /  4.8 km/h 94 % 0.00 in /  0 mm 0 W/m2
20:25 45.8 °F /  7.7 °C 44.2 °F /  6.8 °C 30.45 in /  1031 hPa WNW 2.0 mph /  3.2 km/h 3.0 mph /  4.8 km/h 94 % 0.00 in /  0 mm 0 W/m2
20:35 45.3 °F /  7.4 °C 43.7 °F /  6.5 °C 30.46 in /  1031.4 hPa Calm   1.0 mph /  1.6 km/h 94 % 0.00 in /  0 mm 0 W/m2
20:40 45.0 °F /  7.2 °C 43.4 °F /  6.3 °C 30.46 in /  1031.4 hPa Calm   1.0 mph /  1.6 km/h 94 % 0.00 in /  0 mm 0 W/m2
20:50 44.6 °F /  7 °C 43.0 °F /  6.1 °C 30.46 in /  1031.4 hPa Calm   1.0 mph /  1.6 km/h 94 % 0.00 in /  0 mm 0 W/m2
20:55 44.4 °F /  6.9 °C 42.8 °F /  6 °C 30.46 in /  1031.4 hPa Calm   1.0 mph /  1.6 km/h 94 % 0.00 in /  0 mm 0 W/m2
21:00 44.2 °F /  6.8 °C 42.6 °F /  5.9 °C 30.46 in /  1031.4 hPa Calm   1.0 mph /  1.6 km/h 94 % 0.00 in /  0 mm 0 W/m2
21:05 43.8 °F /  6.6 °C 42.2 °F /  5.7 °C 30.46 in /  1031.4 hPa Calm   1.0 mph /  1.6 km/h 94 % 0.00 in /  0 mm 0 W/m2
21:10 43.6 °F /  6.4 °C 42.0 °F /  5.6 °C 30.46 in /  1031.4 hPa Calm   1.0 mph /  1.6 km/h 94 % 0.00 in /  0 mm 0 W/m2
21:15 43.4 °F /  6.3 °C 41.8 °F /  5.4 °C 30.46 in /  1031.4 hPa Calm   1.0 mph /  1.6 km/h 94 % 0.00 in /  0 mm 0 W/m2
21:25 43.1 °F /  6.2 °C 41.8 °F /  5.4 °C 30.46 in /  1031.4 hPa WNW 2.0 mph /  3.2 km/h 2.0 mph /  3.2 km/h 95 % 0.00 in /  0 mm 0 W/m2
21:30 43.1 °F /  6.2 °C 41.8 °F /  5.4 °C 30.46 in /  1031.4 hPa WNW 2.0 mph /  3.2 km/h 2.0 mph /  3.2 km/h 95 % 0.00 in /  0 mm 0 W/m2
21:35 43.0 °F /  6.1 °C 41.7 °F /  5.4 °C 30.46 in /  1031.4 hPa WNW 1.0 mph /  1.6 km/h 2.0 mph /  3.2 km/h 95 % 0.00 in /  0 mm 0 W/m2
21:40 42.6 °F /  5.9 °C 41.3 °F /  5.2 °C 30.46 in /  1031.4 hPa Calm   1.0 mph /  1.6 km/h 95 % 0.00 in /  0 mm 0 W/m2
21:45 42.3 °F /  5.7 °C 40.7 °F /  4.8 °C 30.46 in /  1031.4 hPa Calm   1.0 mph /  1.6 km/h 94 % 0.00 in /  0 mm 0 W/m2
21:50 41.9 °F /  5.5 °C 40.3 °F /  4.6 °C 30.46 in /  1031.4 hPa Calm   1.0 mph /  1.6 km/h 94 % 0.00 in /  0 mm 0 W/m2
22:00 41.7 °F /  5.4 °C 40.4 °F /  4.7 °C 30.46 in /  1031.4 hPa WNW 1.0 mph /  1.6 km/h 3.0 mph /  4.8 km/h 95 % 0.00 in /  0 mm 0 W/m2
22:05 41.9 °F /  5.5 °C 40.8 °F /  4.9 °C 30.46 in /  1031.4 hPa WNW 2.0 mph /  3.2 km/h 3.0 mph /  4.8 km/h 96 % 0.00 in /  0 mm 0 W/m2
22:10 42.1 °F /  5.6 °C 41.0 °F /  5 °C 30.46 in /  1031.4 hPa WNW 3.0 mph /  4.8 km/h 3.0 mph /  4.8 km/h 96 % 0.00 in /  0 mm 0 W/m2
22:15 42.2 °F /  5.7 °C 41.1 °F /  5.1 °C 30.46 in /  1031.4 hPa WNW 4.0 mph /  6.4 km/h 4.0 mph /  6.4 km/h 96 % 0.00 in /  0 mm 0 W/m2
22:20 42.2 °F /  5.7 °C 41.1 °F /  5.1 °C 30.46 in /  1031.4 hPa WNW 3.0 mph /  4.8 km/h 5.0 mph /  8 km/h 96 % 0.00 in /  0 mm 0 W/m2
22:25 42.2 °F /  5.7 °C 41.1 °F /  5.1 °C 30.46 in /  1031.4 hPa WNW 3.0 mph /  4.8 km/h 5.0 mph /  8 km/h 96 % 0.00 in /  0 mm 0 W/m2
22:30 42.1 °F /  5.6 °C 41.0 °F /  5 °C 30.46 in /  1031.4 hPa WNW 4.0 mph /  6.4 km/h 5.0 mph /  8 km/h 96 % 0.00 in /  0 mm 0 W/m2
22:35 42.2 °F /  5.7 °C 41.1 °F /  5.1 °C 30.46 in /  1031.4 hPa WNW 4.0 mph /  6.4 km/h 5.0 mph /  8 km/h 96 % 0.00 in /  0 mm 0 W/m2
22:40 42.2 °F /  5.7 °C 41.1 °F /  5.1 °C 30.46 in /  1031.4 hPa WNW 4.0 mph /  6.4 km/h 5.0 mph /  8 km/h 96 % 0.00 in /  0 mm 0 W/m2
22:45 42.3 °F /  5.7 °C 41.2 °F /  5.1 °C 30.46 in /  1031.4 hPa WNW 4.0 mph /  6.4 km/h 5.0 mph /  8 km/h 96 % 0.00 in /  0 mm 0 W/m2
22:50 42.3 °F /  5.7 °C 41.2 °F /  5.1 °C 30.46 in /  1031.4 hPa WNW 4.0 mph /  6.4 km/h 5.0 mph /  8 km/h 96 % 0.00 in /  0 mm 0 W/m2
22:55 42.4 °F /  5.8 °C 41.3 °F /  5.2 °C 30.46 in /  1031.4 hPa WNW 3.0 mph /  4.8 km/h 5.0 mph /  8 km/h 96 % 0.00 in /  0 mm 0 W/m2
23:00 42.4 °F /  5.8 °C 41.3 °F /  5.2 °C 30.46 in /  1031.4 hPa WNW 1.0 mph /  1.6 km/h 1.0 mph /  1.6 km/h 96 % 0.00 in /  0 mm 0 W/m2
23:10 42.2 °F /  5.7 °C 41.1 °F /  5.1 °C 30.46 in /  1031.4 hPa Calm   1.0 mph /  1.6 km/h 96 % 0.00 in /  0 mm 0 W/m2
23:15 42.0 °F /  5.6 °C 40.9 °F /  4.9 °C 30.46 in /  1031.4 hPa Calm   1.0 mph /  1.6 km/h 96 % 0.00 in /  0 mm 0 W/m2
23:20 41.8 °F /  5.4 °C 40.7 °F /  4.8 °C 30.45 in /  1031 hPa Calm   2.0 mph /  3.2 km/h 96 % 0.00 in /  0 mm 0 W/m2
23:30 41.6 °F /  5.3 °C 40.5 °F /  4.7 °C 30.45 in /  1031 hPa WNW 3.0 mph /  4.8 km/h 4.0 mph /  6.4 km/h 96 % 0.00 in /  0 mm 0 W/m2
23:35 41.7 °F /  5.4 °C 40.6 °F /  4.8 °C 30.46 in /  1031.4 hPa WNW 4.0 mph /  6.4 km/h 4.0 mph /  6.4 km/h 96 % 0.00 in /  0 mm 0 W/m2
23:40 41.7 °F /  5.4 °C 40.6 °F /  4.8 °C 30.46 in /  1031.4 hPa WNW 4.0 mph /  6.4 km/h 4.0 mph /  6.4 km/h 96 % 0.00 in /  0 mm 0 W/m2
23:45 41.7 °F /  5.4 °C 40.6 °F /  4.8 °C 30.45 in /  1031 hPa WNW 3.0 mph /  4.8 km/h 4.0 mph /  6.4 km/h 96 % 0.00 in /  0 mm 0 W/m2
23:55 41.7 °F /  5.4 °C 40.6 °F /  4.8 °C 30.46 in /  1031.4 hPa WNW 2.0 mph /  3.2 km/h 3.0 mph /  4.8 km/h 96 % 0.00 in /  0 mm 0 W/m2
Delerius-Weather
Compliments of Weather Underground - 2 mb

Data updates at regular intervals.